TimeEDT,TemperatureF,Dew PointF,Humidity,Sea Level PressureIn,VisibilityMPH,Wind Direction,Wind SpeedMPH,Gust SpeedMPH,PrecipitationIn,Events,Conditions,WindDirDegrees,DateUTC
12:53 AM,78.1,70.0,76,30.02,10.0,Calm,Calm,-,N/A,,Partly Cloudy,0,2013-10-05 04:53:00
1:53 AM,78.1,70.0,76,30.01,10.0,NE,4.6,-,N/A,,Partly Cloudy,50,2013-10-05 05:53:00
2:53 AM,75.9,70.0,82,29.99,10.0,North,3.5,-,N/A,,Partly Cloudy,10,2013-10-05 06:53:00
3:53 AM,75.9,71.1,85,29.99,10.0,Calm,Calm,-,N/A,,Scattered Clouds,0,2013-10-05 07:53:00
4:53 AM,73.9,70.0,87,29.98,10.0,NNW,4.6,-,N/A,,Scattered Clouds,340,2013-10-05 08:53:00
5:53 AM,73.9,70.0,87,29.98,10.0,North,4.6,-,N/A,,Partly Cloudy,10,2013-10-05 09:53:00
6:53 AM,73.0,70.0,90,29.99,10.0,NNW,3.5,-,N/A,,Partly Cloudy,340,2013-10-05 10:53:00
7:53 AM,75.0,70.0,84,29.99,10.0,North,5.8,-,N/A,,Partly Cloudy,360,2013-10-05 11:53:00
8:53 AM,81.0,72.0,74,30.00,10.0,NNE,3.5,-,N/A,,Partly Cloudy,20,2013-10-05 12:53:00
9:53 AM,82.9,71.1,67,30.01,10.0,ENE,8.1,-,N/A,,Scattered Clouds,70,2013-10-05 13:53:00
10:53 AM,84.9,70.0,61,30.02,10.0,ENE,10.4,-,N/A,,Scattered Clouds,70,2013-10-05 14:53:00
11:53 AM,84.0,70.0,63,30.02,10.0,East,11.5,-,N/A,,Scattered Clouds,80,2013-10-05 15:53:00
12:53 PM,87.1,66.9,51,30.01,10.0,ENE,8.1,-,N/A,,Partly Cloudy,60,2013-10-05 16:53:00
1:53 PM,86.0,68.0,55,29.98,10.0,East,9.2,-,N/A,,Partly Cloudy,90,2013-10-05 17:53:00
2:53 PM,86.0,71.1,61,29.96,10.0,East,11.5,-,N/A,,Partly Cloudy,90,2013-10-05 18:53:00
3:53 PM,84.9,70.0,61,29.95,10.0,ENE,8.1,-,N/A,,Partly Cloudy,60,2013-10-05 19:53:00
4:53 PM,82.9,71.1,67,29.94,10.0,ENE,8.1,-,N/A,,Partly Cloudy,60,2013-10-05 20:53:00
5:53 PM,82.9,72.0,69,29.94,10.0,ENE,8.1,-,N/A,,Partly Cloudy,70,2013-10-05 21:53:00
6:53 PM,82.0,72.0,71,29.94,10.0,ENE,11.5,-,N/A,,Scattered Clouds,70,2013-10-05 22:53:00
7:53 PM,81.0,71.1,72,29.95,10.0,ENE,10.4,-,N/A,,Overcast,60,2013-10-05 23:53:00
8:53 PM,81.0,70.0,69,29.96,10.0,NE,9.2,-,N/A,,Mostly Cloudy,50,2013-10-06 00:53:00
9:53 PM,81.0,72.0,74,29.97,10.0,ENE,8.1,-,N/A,,Scattered Clouds,60,2013-10-06 01:53:00
10:53 PM,80.1,71.1,74,29.97,10.0,ENE,6.9,-,N/A,,Partly Cloudy,70,2013-10-06 02:53:00
11:53 PM,80.1,72.0,76,29.97,10.0,ENE,4.6,-,N/A,,Scattered Clouds,60,2013-10-06 03:53:00